createdAt,value
2023-09-09T00:00:11.158Z,16.70
2023-09-09T00:02:41.028Z,16.70
2023-09-09T00:05:09.985Z,16.70
2023-09-09T00:07:38.406Z,16.70
2023-09-09T00:10:08.350Z,16.70
2023-09-09T00:12:36.857Z,16.70
2023-09-09T00:15:06.671Z,16.70
2023-09-09T00:17:35.088Z,16.70
2023-09-09T00:20:09.851Z,16.60
2023-09-09T00:22:38.367Z,16.60
2023-09-09T00:25:08.204Z,16.50
2023-09-09T00:27:36.642Z,16.50
2023-09-09T00:30:06.033Z,16.50
2023-09-09T00:32:34.459Z,16.40
2023-09-09T00:35:05.133Z,16.40
2023-09-09T00:37:34.223Z,16.40
2023-09-09T00:40:02.651Z,16.40
2023-09-09T00:42:31.214Z,16.40
2023-09-09T00:44:59.611Z,16.40
2023-09-09T00:47:28.395Z,16.40
2023-09-09T00:49:56.865Z,16.30
2023-09-09T00:52:26.663Z,16.30
2023-09-09T00:54:55.217Z,16.30
2023-09-09T00:57:23.701Z,16.30
2023-09-09T00:59:52.131Z,16.30
2023-09-09T01:02:20.584Z,16.20
2023-09-09T01:04:51.132Z,16.20
2023-09-09T01:07:19.536Z,16.20
2023-09-09T01:09:49.208Z,16.10
2023-09-09T01:12:17.602Z,16.10
2023-09-09T01:14:46.031Z,16.00
2023-09-09T01:17:14.466Z,16.00
2023-09-09T01:19:42.840Z,16.00
2023-09-09T01:22:17.609Z,15.90
2023-09-09T01:24:46.975Z,15.90
2023-09-09T01:27:16.079Z,15.90
2023-09-09T01:29:44.511Z,15.80
2023-09-09T01:32:12.946Z,15.80
2023-09-09T01:34:41.584Z,15.80
2023-09-09T01:37:09.904Z,15.70
2023-09-09T01:39:39.718Z,15.70
2023-09-09T01:42:08.333Z,15.70
2023-09-09T01:44:36.699Z,15.70
2023-09-09T01:47:06.420Z,15.60
2023-09-09T01:49:34.860Z,15.70
2023-09-09T01:52:03.778Z,15.60
2023-09-09T01:54:32.475Z,15.60
2023-09-09T01:57:02.228Z,15.60
2023-09-09T01:59:30.655Z,15.60
2023-09-09T02:01:59.033Z,15.60
2023-09-09T02:04:27.629Z,15.60
2023-09-09T02:06:56.037Z,15.60
2023-09-09T02:09:24.487Z,15.60
2023-09-09T02:11:52.836Z,15.60
2023-09-09T02:14:22.648Z,15.50
2023-09-09T02:16:51.056Z,15.50
2023-09-09T02:19:19.530Z,15.50
2023-09-09T02:21:47.885Z,15.50
2023-09-09T02:24:16.744Z,15.50
2023-09-09T02:26:45.103Z,15.50
2023-09-09T02:29:13.526Z,15.50
2023-09-09T02:31:43.346Z,15.50
2023-09-09T02:34:11.756Z,15.50
2023-09-09T02:36:45.230Z,15.50
2023-09-09T02:39:13.651Z,15.40
2023-09-09T02:41:42.040Z,15.40
2023-09-09T02:44:10.410Z,15.40
2023-09-09T02:46:38.851Z,15.30
2023-09-09T02:49:08.602Z,15.30
2023-09-09T02:51:37.479Z,15.30
2023-09-09T02:54:06.034Z,15.30
2023-09-09T02:56:34.464Z,15.30
2023-09-09T02:59:02.861Z,15.30
2023-09-09T03:01:32.399Z,15.30
2023-09-09T03:04:01.071Z,15.30
2023-09-09T03:06:31.003Z,15.30
2023-09-09T03:08:59.407Z,15.30
2023-09-09T03:11:29.118Z,15.30
2023-09-09T03:13:57.474Z,15.30
2023-09-09T03:16:25.947Z,15.30
2023-09-09T03:18:54.305Z,15.30
2023-09-09T03:21:22.756Z,15.30
2023-09-09T03:23:52.516Z,15.30
2023-09-09T03:26:20.977Z,15.20
2023-09-09T03:28:49.342Z,15.20
2023-09-09T03:31:17.829Z,15.20
2023-09-09T03:33:46.259Z,15.20
2023-09-09T03:36:15.086Z,15.20
2023-09-09T03:38:43.498Z,15.20
2023-09-09T03:41:13.221Z,15.20
2023-09-09T03:43:42.168Z,15.10
2023-09-09T03:46:11.057Z,15.10
2023-09-09T03:48:39.481Z,15.10
2023-09-09T03:51:08.009Z,15.10
2023-09-09T03:53:36.850Z,15.10
2023-09-09T03:56:06.487Z,15.10
2023-09-09T03:58:36.379Z,15.10
2023-09-09T04:01:06.928Z,15.10
2023-09-09T04:03:36.684Z,15.00
2023-09-09T04:06:07.068Z,15.00
2023-09-09T04:08:35.899Z,15.00
2023-09-09T04:11:04.553Z,15.00
2023-09-09T04:13:33.240Z,15.00
2023-09-09T04:16:03.051Z,15.00
2023-09-09T04:18:44.843Z,15.00
2023-09-09T04:21:14.619Z,15.00
2023-09-09T04:23:43.378Z,14.90
2023-09-09T04:26:11.826Z,14.90
2023-09-09T04:28:41.207Z,14.90
2023-09-09T04:31:11.151Z,14.90
2023-09-09T04:33:40.049Z,14.90
2023-09-09T04:36:08.711Z,14.90
2023-09-09T04:38:38.145Z,14.90
2023-09-09T04:41:08.234Z,14.90
2023-09-09T04:43:36.796Z,14.80
2023-09-09T04:46:05.493Z,14.80
2023-09-09T04:48:35.329Z,14.80
2023-09-09T04:51:03.797Z,14.80
2023-09-09T04:53:32.316Z,14.80
2023-09-09T04:56:02.425Z,14.90
2023-09-09T04:58:32.232Z,14.90
2023-09-09T05:01:01.108Z,14.90
2023-09-09T05:03:30.143Z,14.90
2023-09-09T05:05:59.931Z,14.90
2023-09-09T05:08:28.319Z,14.90
2023-09-09T05:10:56.719Z,14.90
2023-09-09T05:13:26.199Z,14.90
2023-09-09T05:15:55.913Z,14.90
2023-09-09T05:18:25.748Z,14.90
2023-09-09T05:20:55.705Z,14.90
2023-09-09T05:23:25.501Z,15.00
2023-09-09T05:25:53.862Z,15.00
2023-09-09T05:28:22.254Z,15.00
2023-09-09T05:30:50.635Z,15.10
2023-09-09T05:33:19.118Z,15.10
2023-09-09T05:35:51.173Z,15.20
2023-09-09T05:38:19.476Z,15.20
2023-09-09T05:40:49.227Z,15.30
2023-09-09T05:43:17.582Z,15.30
2023-09-09T05:45:46.019Z,15.40
2023-09-09T05:48:14.478Z,15.40
2023-09-09T05:50:42.909Z,15.50
2023-09-09T05:53:11.352Z,15.60
2023-09-09T05:55:39.813Z,15.60
2023-09-09T05:58:09.589Z,15.80
2023-09-09T06:00:37.999Z,15.80
2023-09-09T06:03:06.787Z,15.90
2023-09-09T06:05:35.294Z,16.00
2023-09-09T06:08:03.849Z,16.10
2023-09-09T06:10:32.296Z,16.20
2023-09-09T06:13:00.732Z,16.30
2023-09-09T06:15:30.511Z,16.40
2023-09-09T06:18:01.238Z,16.50
2023-09-09T06:20:29.761Z,16.70
2023-09-09T06:22:58.196Z,16.80
2023-09-09T06:25:26.670Z,16.90
2023-09-09T06:27:55.052Z,17.00
2023-09-09T06:30:23.797Z,17.10
2023-09-09T06:32:53.666Z,17.20
2023-09-09T06:35:23.262Z,17.30
2023-09-09T06:37:51.679Z,17.40
2023-09-09T06:40:20.041Z,17.50
2023-09-09T06:42:48.416Z,17.60
2023-09-09T06:45:19.101Z,17.70
2023-09-09T06:47:48.174Z,17.80
2023-09-09T06:50:18.701Z,17.90
2023-09-09T06:52:47.189Z,18.00
2023-09-09T06:55:15.820Z,18.10
2023-09-09T06:57:44.295Z,18.20
2023-09-09T07:00:14.885Z,18.30
2023-09-09T07:02:43.368Z,18.30
2023-09-09T07:05:17.642Z,18.40
2023-09-09T07:07:47.491Z,18.50
2023-09-09T07:10:15.913Z,18.60
2023-09-09T07:12:44.286Z,18.70
2023-09-09T07:15:12.970Z,18.80
2023-09-09T07:17:41.703Z,18.90
2023-09-09T07:20:10.951Z,19.00
2023-09-09T07:22:39.328Z,19.10
2023-09-09T07:25:09.771Z,19.20
2023-09-09T07:27:38.288Z,19.30
2023-09-09T07:30:08.921Z,19.40
2023-09-09T07:32:37.387Z,19.50
2023-09-09T07:35:07.295Z,19.60
2023-09-09T07:37:35.715Z,19.80
2023-09-09T07:40:05.457Z,19.90
2023-09-09T07:42:35.200Z,20.00
2023-09-09T07:45:03.648Z,20.10
2023-09-09T07:47:32.129Z,20.20
2023-09-09T07:50:00.521Z,20.30
2023-09-09T07:52:29.433Z,20.50
2023-09-09T07:54:58.954Z,20.60
2023-09-09T07:57:27.346Z,20.70
2023-09-09T07:59:57.723Z,20.90
2023-09-09T08:02:26.088Z,21.00
2023-09-09T08:04:54.583Z,21.10
2023-09-09T08:07:23.014Z,21.20
2023-09-09T08:09:51.431Z,21.40
2023-09-09T08:12:19.815Z,21.50
2023-09-09T08:14:48.717Z,21.60
2023-09-09T08:17:18.498Z,21.70
2023-09-09T08:19:46.969Z,21.80
2023-09-09T08:22:15.339Z,22.00
2023-09-09T08:24:43.780Z,22.10
2023-09-09T08:27:14.071Z,22.30
2023-09-09T08:29:42.427Z,22.40
2023-09-09T08:32:10.866Z,22.50
2023-09-09T08:34:40.657Z,22.60
2023-09-09T08:37:08.999Z,22.80
2023-09-09T08:39:39.260Z,22.90
2023-09-09T08:42:15.254Z,23.00
2023-09-09T08:44:51.059Z,23.20
2023-09-09T08:47:20.457Z,23.30
2023-09-09T08:49:50.506Z,23.40
2023-09-09T08:52:21.487Z,23.40
2023-09-09T08:54:50.004Z,23.50
2023-09-09T08:57:18.751Z,23.60
2023-09-09T08:59:48.771Z,23.70
2023-09-09T09:02:17.473Z,23.80
2023-09-09T09:04:46.266Z,23.90
2023-09-09T09:07:16.194Z,24.00
2023-09-09T09:09:44.512Z,24.10
2023-09-09T09:12:13.263Z,24.20
2023-09-09T09:14:47.905Z,24.40
2023-09-09T09:17:18.165Z,24.50
2023-09-09T09:19:46.565Z,24.60
2023-09-09T09:22:16.384Z,24.70
2023-09-09T09:24:45.816Z,24.80
2023-09-09T09:27:14.579Z,25.00
2023-09-09T09:29:43.686Z,25.10
2023-09-09T09:32:13.174Z,25.20
2023-09-09T09:34:42.095Z,25.40
2023-09-09T09:37:13.642Z,25.50
2023-09-09T09:39:44.456Z,25.60
2023-09-09T09:42:13.624Z,25.70
2023-09-09T09:44:42.054Z,25.90
2023-09-09T09:47:12.427Z,26.00
2023-09-09T09:49:42.093Z,26.10
2023-09-09T09:52:10.702Z,26.20
2023-09-09T09:54:40.032Z,26.40
2023-09-09T09:57:09.911Z,26.50
2023-09-09T09:59:39.408Z,26.70
2023-09-09T10:02:08.052Z,26.70
2023-09-09T10:04:41.029Z,26.90
2023-09-09T10:07:14.097Z,27.00
2023-09-09T10:09:47.040Z,27.10
2023-09-09T10:12:25.208Z,27.20
2023-09-09T10:15:02.510Z,27.30
2023-09-09T10:17:31.209Z,27.40
2023-09-09T10:19:59.576Z,27.50
2023-09-09T10:22:28.048Z,27.60
2023-09-09T10:24:56.473Z,27.80
2023-09-09T10:27:26.258Z,27.90
2023-09-09T10:29:54.636Z,28.00
2023-09-09T10:32:23.048Z,28.00
2023-09-09T10:34:51.828Z,28.10
2023-09-09T10:37:21.212Z,28.10
2023-09-09T10:39:50.047Z,28.20
2023-09-09T10:42:18.585Z,28.20
2023-09-09T10:44:50.604Z,28.30
2023-09-09T10:47:20.887Z,28.30
2023-09-09T10:49:49.280Z,28.40
2023-09-09T10:52:33.058Z,28.40
2023-09-09T10:55:14.500Z,28.50
2023-09-09T10:57:43.019Z,28.60
2023-09-09T11:00:36.861Z,28.70
2023-09-09T11:03:08.452Z,28.80
2023-09-09T11:06:03.609Z,28.80
2023-09-09T11:08:33.907Z,28.90
2023-09-09T11:11:16.242Z,28.90
2023-09-09T11:13:48.488Z,29.00
2023-09-09T11:16:33.339Z,29.00
2023-09-09T11:19:04.961Z,29.00
2023-09-09T11:21:35.426Z,29.00
2023-09-09T11:24:04.745Z,29.00
2023-09-09T11:26:33.176Z,29.00
2023-09-09T11:29:01.554Z,29.10
2023-09-09T11:31:32.116Z,29.10
2023-09-09T11:34:00.890Z,29.20
2023-09-09T11:36:32.063Z,29.20
2023-09-09T11:39:01.843Z,29.30
2023-09-09T11:41:32.609Z,29.40
2023-09-09T11:44:02.246Z,29.40
2023-09-09T11:46:37.777Z,29.50
2023-09-09T11:49:06.383Z,29.60
2023-09-09T11:51:34.746Z,29.60
2023-09-09T11:54:03.110Z,29.70
2023-09-09T11:56:34.008Z,29.70
2023-09-09T11:59:08.454Z,29.70
2023-09-09T12:01:43.717Z,29.60
2023-09-09T12:04:12.392Z,29.60
2023-09-09T12:06:41.416Z,29.70
2023-09-09T12:09:10.146Z,29.70
2023-09-09T12:11:38.718Z,29.80
2023-09-09T12:14:07.891Z,29.80
2023-09-09T12:16:36.270Z,29.80
2023-09-09T12:19:06.210Z,29.80
2023-09-09T12:21:45.236Z,29.80
2023-09-09T12:24:13.677Z,29.80
2023-09-09T12:26:42.112Z,29.80
2023-09-09T12:29:11.431Z,29.90
2023-09-09T12:31:54.357Z,29.90
2023-09-09T12:34:25.378Z,30.00
2023-09-09T12:36:58.213Z,30.00
2023-09-09T12:39:27.368Z,30.00
2023-09-09T12:42:02.331Z,30.10
2023-09-09T12:44:32.923Z,30.10
2023-09-09T12:47:04.374Z,30.20
2023-09-09T12:49:34.548Z,30.20
2023-09-09T12:52:03.082Z,30.20
2023-09-09T12:54:31.562Z,30.30
2023-09-09T12:57:00.026Z,30.30
2023-09-09T12:59:28.422Z,30.30
2023-09-09T13:01:57.240Z,30.40
2023-09-09T13:04:26.171Z,30.40
2023-09-09T13:06:56.289Z,30.50
2023-09-09T13:09:25.638Z,30.50
2023-09-09T13:11:54.129Z,30.50
2023-09-09T13:14:25.985Z,30.40
2023-09-09T13:16:55.400Z,30.40
2023-09-09T13:19:26.449Z,30.40
2023-09-09T13:21:57.583Z,30.40
2023-09-09T13:24:25.956Z,30.50
2023-09-09T13:26:54.342Z,30.50
2023-09-09T13:29:22.839Z,30.50
2023-09-09T13:31:51.349Z,30.60
2023-09-09T13:34:19.848Z,30.60
2023-09-09T13:36:48.276Z,30.60
2023-09-09T13:39:18.219Z,30.70
2023-09-09T13:41:47.770Z,30.70
2023-09-09T13:44:16.205Z,30.70
2023-09-09T13:46:44.685Z,30.70
2023-09-09T13:49:13.117Z,30.80
2023-09-09T13:51:41.637Z,30.70
2023-09-09T13:54:10.201Z,30.70
2023-09-09T13:56:41.100Z,30.70
2023-09-09T13:59:11.376Z,30.70
2023-09-09T14:01:39.741Z,30.70
2023-09-09T14:04:08.483Z,30.70
2023-09-09T14:06:36.954Z,30.70
2023-09-09T14:09:05.523Z,30.70
2023-09-09T14:11:34.005Z,30.70
2023-09-09T14:14:03.855Z,30.70
2023-09-09T14:16:32.244Z,30.70
2023-09-09T14:19:00.923Z,30.70
2023-09-09T14:21:29.352Z,30.70
2023-09-09T14:23:57.845Z,30.70
2023-09-09T14:26:28.384Z,30.70
2023-09-09T14:28:56.755Z,30.70
2023-09-09T14:31:26.869Z,30.70
2023-09-09T14:33:55.358Z,30.70
2023-09-09T14:36:23.745Z,30.70
2023-09-09T14:38:52.181Z,30.60
2023-09-09T14:41:20.578Z,30.60
2023-09-09T14:43:48.976Z,30.60
2023-09-09T14:46:17.532Z,30.60
2023-09-09T14:48:59.410Z,30.50
2023-09-09T14:51:30.055Z,30.60
2023-09-09T14:54:00.378Z,30.50
2023-09-09T14:56:28.743Z,30.50
2023-09-09T14:58:57.053Z,30.40
2023-09-09T15:01:25.480Z,30.30
2023-09-09T15:03:53.948Z,30.30
2023-09-09T15:06:23.732Z,30.20
2023-09-09T15:08:52.632Z,30.20
2023-09-09T15:11:22.241Z,30.10
2023-09-09T15:13:50.756Z,30.10
2023-09-09T15:16:21.933Z,30.00
2023-09-09T15:18:50.516Z,29.90
2023-09-09T15:21:19.095Z,29.90
2023-09-09T15:23:48.915Z,29.90
2023-09-09T15:26:17.323Z,29.80
2023-09-09T15:28:45.721Z,29.70
2023-09-09T15:31:14.202Z,29.70
2023-09-09T15:33:42.518Z,29.60
2023-09-09T15:36:10.905Z,29.60
2023-09-09T15:38:42.252Z,29.50
2023-09-09T15:41:12.128Z,29.50
2023-09-09T15:43:40.583Z,29.40
2023-09-09T15:46:09.065Z,29.40
2023-09-09T15:48:37.700Z,29.30
2023-09-09T15:51:06.436Z,29.20
2023-09-09T15:53:34.937Z,29.20
2023-09-09T15:56:04.140Z,29.10
2023-09-09T15:58:34.216Z,29.10
2023-09-09T16:01:02.810Z,29.10
2023-09-09T16:03:31.455Z,29.00
2023-09-09T16:06:04.854Z,29.00
2023-09-09T16:08:34.328Z,28.90
2023-09-09T16:11:02.820Z,28.90
2023-09-09T16:13:31.414Z,28.80
2023-09-09T16:16:02.532Z,28.80
2023-09-09T16:18:31.802Z,28.70
2023-09-09T16:21:00.642Z,28.60
2023-09-09T16:23:29.121Z,28.60
2023-09-09T16:25:57.775Z,28.50
2023-09-09T16:28:26.384Z,28.50
2023-09-09T16:30:54.759Z,28.40
2023-09-09T16:33:24.816Z,28.30
2023-09-09T16:35:53.295Z,28.20
2023-09-09T16:38:21.663Z,28.20
2023-09-09T16:40:54.332Z,28.10
2023-09-09T16:43:22.987Z,28.00
2023-09-09T16:45:51.500Z,27.90
2023-09-09T16:48:23.339Z,27.80
2023-09-09T16:50:52.211Z,27.60
2023-09-09T16:53:22.280Z,27.50
2023-09-09T16:55:50.853Z,27.30
2023-09-09T16:58:19.361Z,27.20
2023-09-09T17:00:49.746Z,27.10
2023-09-09T17:03:18.547Z,26.90
2023-09-09T17:05:49.810Z,26.80
2023-09-09T17:08:18.330Z,26.60
2023-09-09T17:10:50.903Z,26.50
2023-09-09T17:13:19.425Z,26.30
2023-09-09T17:15:47.941Z,26.20
2023-09-09T17:18:16.376Z,26.00
2023-09-09T17:20:44.736Z,25.90
2023-09-09T17:23:14.449Z,25.80
2023-09-09T17:25:42.843Z,25.60
2023-09-09T17:28:11.288Z,25.50
2023-09-09T17:30:39.725Z,25.40
2023-09-09T17:33:08.141Z,25.20
2023-09-09T17:35:36.539Z,25.10
2023-09-09T17:38:05.383Z,25.00
2023-09-09T17:40:35.225Z,24.90
2023-09-09T17:43:03.808Z,24.70
2023-09-09T17:45:32.198Z,24.60
2023-09-09T17:48:00.736Z,24.50
2023-09-09T17:50:29.228Z,24.40
2023-09-09T17:52:57.755Z,24.30
2023-09-09T17:55:26.244Z,24.20
2023-09-09T17:57:56.217Z,24.10
2023-09-09T18:00:25.313Z,24.00
2023-09-09T18:02:53.776Z,23.90
2023-09-09T18:05:22.615Z,23.80
2023-09-09T18:07:51.007Z,23.70
2023-09-09T18:10:19.664Z,23.50
2023-09-09T18:12:48.081Z,23.40
2023-09-09T18:15:18.336Z,23.40
2023-09-09T18:17:46.957Z,23.30
2023-09-09T18:20:15.370Z,23.20
2023-09-09T18:22:43.792Z,23.00
2023-09-09T18:25:12.232Z,23.00
2023-09-09T18:27:40.618Z,22.90
2023-09-09T18:30:10.367Z,22.80
2023-09-09T18:32:41.562Z,22.70
2023-09-09T18:35:11.085Z,22.60
2023-09-09T18:37:39.556Z,22.50
2023-09-09T18:40:09.988Z,22.40
2023-09-09T18:42:38.401Z,22.40
2023-09-09T18:45:09.412Z,22.30
2023-09-09T18:47:39.134Z,22.10
2023-09-09T18:50:09.283Z,22.10
2023-09-09T18:52:37.738Z,22.00
2023-09-09T18:55:07.177Z,22.00
2023-09-09T18:57:35.591Z,21.90
2023-09-09T19:00:06.221Z,21.80
2023-09-09T19:02:35.005Z,21.70
2023-09-09T19:05:05.527Z,21.60
2023-09-09T19:07:36.577Z,21.60
2023-09-09T19:10:07.437Z,21.50
2023-09-09T19:12:35.822Z,21.50
2023-09-09T19:15:04.223Z,21.40
2023-09-09T19:17:32.696Z,21.40
2023-09-09T19:20:02.487Z,21.30
2023-09-09T19:22:32.433Z,21.20
2023-09-09T19:25:00.904Z,21.20
2023-09-09T19:27:29.365Z,21.10
2023-09-09T19:29:57.862Z,21.10
2023-09-09T19:32:26.411Z,21.10
2023-09-09T19:34:55.286Z,21.00
2023-09-09T19:37:23.679Z,21.00
2023-09-09T19:39:58.363Z,20.90
2023-09-09T19:42:27.472Z,20.90
2023-09-09T19:44:55.937Z,20.80
2023-09-09T19:47:24.747Z,20.80
2023-09-09T19:49:54.209Z,20.70
2023-09-09T19:52:22.813Z,20.70
2023-09-09T19:54:52.584Z,20.70
2023-09-09T19:57:20.936Z,20.60
2023-09-09T19:59:49.750Z,20.60
2023-09-09T20:02:18.290Z,20.50
2023-09-09T20:04:46.783Z,20.50
2023-09-09T20:07:15.172Z,20.50
2023-09-09T20:09:43.536Z,20.40
2023-09-09T20:12:15.826Z,20.40
2023-09-09T20:14:47.141Z,20.40
2023-09-09T20:17:16.794Z,20.40
2023-09-09T20:19:45.288Z,20.40
2023-09-09T20:22:13.734Z,20.30
2023-09-09T20:24:42.136Z,20.30
2023-09-09T20:27:10.576Z,20.20
2023-09-09T20:29:40.433Z,20.20
2023-09-09T20:32:09.005Z,20.10
2023-09-09T20:34:39.767Z,20.00
2023-09-09T20:37:08.208Z,20.00
2023-09-09T20:39:37.673Z,19.90
2023-09-09T20:42:07.821Z,19.90
2023-09-09T20:44:36.196Z,19.80
2023-09-09T20:47:06.510Z,19.80
2023-09-09T20:49:35.060Z,19.70
2023-09-09T20:52:03.496Z,19.60
2023-09-09T20:54:31.911Z,19.60
2023-09-09T20:57:00.574Z,19.50
2023-09-09T20:59:28.971Z,19.40
2023-09-09T21:01:57.356Z,19.40
2023-09-09T21:04:27.416Z,19.40
2023-09-09T21:06:56.296Z,19.30
2023-09-09T21:09:24.696Z,19.20
2023-09-09T21:11:52.992Z,19.20
2023-09-09T21:14:23.269Z,19.20
2023-09-09T21:16:52.103Z,19.10
2023-09-09T21:19:20.496Z,19.10
2023-09-09T21:21:50.305Z,19.00
2023-09-09T21:24:20.442Z,19.00
2023-09-09T21:26:48.897Z,18.90
2023-09-09T21:29:17.329Z,18.90
2023-09-09T21:31:48.550Z,18.80
2023-09-09T21:34:17.082Z,18.80
2023-09-09T21:36:46.235Z,18.70
2023-09-09T21:39:16.004Z,18.70
2023-09-09T21:41:44.546Z,18.70
2023-09-09T21:44:12.916Z,18.60
2023-09-09T21:46:41.729Z,18.60
2023-09-09T21:49:10.125Z,18.50
2023-09-09T21:51:38.490Z,18.50
2023-09-09T21:54:07.515Z,18.50
2023-09-09T21:56:37.285Z,18.40
2023-09-09T21:59:06.056Z,18.40
2023-09-09T22:01:34.579Z,18.30
2023-09-09T22:04:03.040Z,18.30
2023-09-09T22:06:31.715Z,18.20
2023-09-09T22:09:00.119Z,18.20
2023-09-09T22:11:28.576Z,18.20
2023-09-09T22:13:58.309Z,18.20
2023-09-09T22:16:26.868Z,18.10
2023-09-09T22:18:55.719Z,18.10
2023-09-09T22:21:23.087Z,18.10
2023-09-09T22:23:51.522Z,18.10
2023-09-09T22:26:26.793Z,18.00
2023-09-09T22:28:55.297Z,18.00
2023-09-09T22:31:25.850Z,18.00
2023-09-09T22:33:54.371Z,18.00
2023-09-09T22:36:22.870Z,17.90
2023-09-09T22:38:52.600Z,17.90
2023-09-09T22:41:21.029Z,17.90
2023-09-09T22:43:49.627Z,17.90
2023-09-09T22:46:18.242Z,17.90
2023-09-09T22:48:48.053Z,17.80
2023-09-09T22:51:16.481Z,17.80
2023-09-09T22:53:45.474Z,17.70
2023-09-09T22:56:13.945Z,17.70
2023-09-09T22:58:42.479Z,17.70
2023-09-09T23:01:13.358Z,17.60
2023-09-09T23:03:43.811Z,17.60
2023-09-09T23:06:14.638Z,17.50
2023-09-09T23:08:43.169Z,17.50
2023-09-09T23:11:12.878Z,17.50
2023-09-09T23:13:41.432Z,17.40
2023-09-09T23:16:09.922Z,17.40
2023-09-09T23:18:40.220Z,17.40
2023-09-09T23:21:08.838Z,17.30
2023-09-09T23:23:39.138Z,17.30
2023-09-09T23:26:08.909Z,17.30
2023-09-09T23:28:39.672Z,17.30
2023-09-09T23:31:09.099Z,17.30
2023-09-09T23:33:37.524Z,17.30
2023-09-09T23:36:06.868Z,17.30
2023-09-09T23:38:35.331Z,17.20
2023-09-09T23:41:05.134Z,17.20
2023-09-09T23:43:33.637Z,17.20
2023-09-09T23:46:02.202Z,17.20
2023-09-09T23:48:30.926Z,17.10
2023-09-09T23:51:00.941Z,17.10
2023-09-09T23:53:29.346Z,17.10
2023-09-09T23:55:57.760Z,17.10
2023-09-09T23:58:27.643Z,17.10
